Terminal Aerodrome Forecast
Issued by NWS

Home | Current Version | Previous Version | Text Only | Print | Product List | Glossary On
Versions: 1 2 3 4 5 6 7 8 9 10 11 12 13 14 15 16
000
FTUS42 KMLB 061736
TAFSFB
TAF
KSFB 061736Z 0618/0718 30015G21KT P6SM FEW050
     FM070200 28004KT P6SM SKC
     FM071500 30012KT P6SM FEW040=

USA.gov is the U.S. government's official web portal to all federal, state and local government web resources and services.